Forside
METAR-TAF:

METAR-TAF

Lufthavne :

Orsk, Rusland

Breddekreds: 51-04-18N, længdekreds: 058-35-48E, højde: 277 m

Aktuelle vejr

Denne rapport blev lavet for 57 minutter siden, kl. 02:00 UTC
Vind 12 kt fra vest
Temperatur -8°C
Fugtighed 62%
Tryk 1033 hPa
Sigt 10 km eller mere
ingen skyer under 1500m og ingen cumulonimbus

METAR: UWOR 170200Z 27006MPS CAVOK M08/M14 Q1033 R25/810055 NOSIG RMK QFE751/1001

Tid: 07:57 (02:57 UTC)

Vejrudsigter

Denne rapport blev lavet for 57 minutter siden, kl. 02:00 UTC
Foreløbig gælder fra 17 på 03 UTC til 17 på 12 UTC
Vind 12 kt fra vest med vindstød på up til 21 kt
Sigt 10 km eller mere
Brudte skyer i en højde af 1500 ft
Midlertidig
fra 17 på 06 UTC til 17 på 12 UTC
Vind 16 kt fra vestnordvest med vindstød på up til 27 kt
Sigt: 3100 m
Brudte skyer i en højde af 1300 ft, Cumulonimbus.
let snebyger, blæsende sne

TAF: UWOR 170200Z 1703/1712 27006G11MPS 9999 BKN015 TEMPO 1706/1712 29008G14MPS 3100 -SHSN BLSN BKN013CB

Vejrobservationer og prognoser fra mere end 4000 lufthavne (METAR og TAF).

De gule og røde prikker repræsenterer de meteorologiske stationer.

Flyt musen over at se navnet på stationen.

Så klik over at se vejr observationer og prognoser.

At skifte det kort: Klik på de grønne knapper med et sort kors for at zoome ind; på den grønne knap med en bindestreg for at zoome ud; eller på de grønne pile for tilstødende kort.


METAR-TAF: